Time;durP1;ratioP1;P1;durP2;ratioP2;P2;SDS_P1;SDS_P2;PMS_P1;PMS_P2;Temp;Humidity;BMP_temperature;BMP_pressure;BME280_temperature;BME280_humidity;BME280_pressure;Samples;Min_cycle;Max_cycle;Signal;HPM_P1;HPM_P2
2023/08/25 00:01:53;;;;;;;10.23;6.97;;;;;;;;;;4992706;28;20958;-60
2023/08/25 00:04:19;;;;;;;8.70;7.27;;;;;;;;;;4981210;28;20465;-60
2023/08/25 00:06:44;;;;;;;10.00;7.03;;;;;;;;;;4989474;28;20921;-60
2023/08/25 00:09:09;;;;;;;10.47;7.57;;;;;;;;;;4982983;28;20956;-60
2023/08/25 00:11:36;;;;;;;10.00;7.87;;;;;;;;;;4987949;28;20410;-60
2023/08/25 00:14:01;;;;;;;11.20;8.75;;;;;;;;;;4978188;28;21382;-60
2023/08/25 00:16:27;;;;;;;11.18;8.55;;;;;;;;;;4982919;28;20395;-60
2023/08/25 00:18:52;;;;;;;10.97;8.10;;;;;;;;;;4989947;28;20410;-60
2023/08/25 00:21:17;;;;;;;10.90;8.37;;;;;;;;;;4990106;28;21042;-61
2023/08/25 00:23:43;;;;;;;12.07;8.70;;;;;;;;;;4988955;28;20414;-60
2023/08/25 00:26:08;;;;;;;8.63;7.73;;;;;;;;;;4990245;28;20823;-60
2023/08/25 00:28:33;;;;;;;10.30;7.73;;;;;;;;;;4993075;28;20841;-60
2023/08/25 00:30:59;;;;;;;12.33;7.83;;;;;;;;;;4987448;28;20605;-60
2023/08/25 00:33:24;;;;;;;8.87;7.10;;;;;;;;;;4983848;28;20671;-60
2023/08/25 00:35:49;;;;;;;10.33;7.57;;;;;;;;;;4984404;28;20920;-60
2023/08/25 00:38:15;;;;;;;10.73;7.70;;;;;;;;;;4979750;28;20417;-60
2023/08/25 00:40:40;;;;;;;9.33;7.50;;;;;;;;;;4992840;28;20872;-60
2023/08/25 00:43:05;;;;;;;9.73;7.20;;;;;;;;;;5006259;28;20414;-60
2023/08/25 00:45:30;;;;;;;10.40;7.53;;;;;;;;;;5007525;28;20902;-60
2023/08/25 00:47:56;;;;;;;11.93;7.47;;;;;;;;;;4996077;28;20424;-60
2023/08/25 00:50:21;;;;;;;8.60;7.30;;;;;;;;;;5004093;28;20400;-60
2023/08/25 00:52:46;;;;;;;8.97;7.60;;;;;;;;;;5007742;28;20405;-60
2023/08/25 00:55:12;;;;;;;10.03;8.10;;;;;;;;;;5003290;28;20432;-60
2023/08/25 00:57:37;;;;;;;9.70;7.83;;;;;;;;;;5014549;28;20906;-60
2023/08/25 01:00:04;;;;;;;10.20;8.43;;;;;;;;;;5015787;28;20410;-60
2023/08/25 01:02:29;;;;;;;10.15;8.00;;;;;;;;;;5019560;28;20415;-60
2023/08/25 01:04:56;;;;;;;12.93;10.23;;;;;;;;;;5022708;28;21025;-60
2023/08/25 01:07:21;;;;;;;10.15;9.07;;;;;;;;;;5026660;28;20431;-60
2023/08/25 01:09:47;;;;;;;10.63;9.23;;;;;;;;;;5012086;28;20500;-60
2023/08/25 01:12:17;;;;;;;14.63;8.40;;;;;;;;;;4993072;28;20391;-60
2023/08/25 01:14:50;;;;;;;10.38;7.80;;;;;;;;;;5013914;28;20400;-60
2023/08/25 01:17:30;;;;;;;9.98;7.53;;;;;;;;;;5030725;28;20411;-60
2023/08/25 01:19:56;;;;;;;11.50;9.00;;;;;;;;;;5012399;28;20408;-60
2023/08/25 01:22:24;;;;;;;9.45;8.27;;;;;;;;;;5013024;28;20470;-60
2023/08/25 01:24:50;;;;;;;10.93;9.30;;;;;;;;;;5013505;28;20447;-60
2023/08/25 01:27:15;;;;;;;10.63;8.33;;;;;;;;;;5010978;28;20404;-60
2023/08/25 01:29:41;;;;;;;11.43;9.67;;;;;;;;;;5012041;28;20428;-60
2023/08/25 01:32:07;;;;;;;11.63;10.18;;;;;;;;;;5021902;28;20503;-60
2023/08/25 01:34:33;;;;;;;10.80;9.50;;;;;;;;;;5023965;28;20483;-60
2023/08/25 01:37:03;;;;;;;12.65;10.30;;;;;;;;;;5024805;28;20778;-60
2023/08/25 01:39:29;;;;;;;10.98;9.88;;;;;;;;;;5012858;28;20401;-60
2023/08/25 01:41:59;;;;;;;10.50;9.27;;;;;;;;;;5012447;28;20462;-60
2023/08/25 01:44:24;;;;;;;12.90;9.73;;;;;;;;;;5011305;28;20412;-60
2023/08/25 01:46:51;;;;;;;11.93;9.50;;;;;;;;;;5012526;28;20405;-60
2023/08/25 01:49:16;;;;;;;13.77;10.15;;;;;;;;;;5011177;28;20804;-60
2023/08/25 01:51:42;;;;;;;12.30;10.27;;;;;;;;;;5011645;28;20405;-60
2023/08/25 01:54:07;;;;;;;11.48;10.27;;;;;;;;;;5011865;28;20475;-60
2023/08/25 01:56:32;;;;;;;11.40;9.77;;;;;;;;;;5012991;28;21007;-60
2023/08/25 01:58:57;;;;;;;10.77;9.05;;;;;;;;;;5012910;28;20455;-60
2023/08/25 02:01:23;;;;;;;12.83;9.47;;;;;;;;;;5011416;28;20401;-60
2023/08/25 02:03:48;;;;;;;13.00;10.10;;;;;;;;;;5012850;28;20404;-60
2023/08/25 02:06:13;;;;;;;10.53;9.17;;;;;;;;;;5012171;28;20487;-60
2023/08/25 02:08:39;;;;;;;12.73;9.60;;;;;;;;;;5011474;28;20395;-60
2023/08/25 02:11:04;;;;;;;11.17;9.97;;;;;;;;;;4995985;28;20935;-60
2023/08/25 02:13:30;;;;;;;10.70;9.13;;;;;;;;;;5020945;28;20420;-60
2023/08/25 02:15:55;;;;;;;12.60;9.77;;;;;;;;;;5015417;28;20407;-60
2023/08/25 02:18:20;;;;;;;11.57;9.83;;;;;;;;;;4997650;28;20476;-60
2023/08/25 02:20:45;;;;;;;12.17;10.27;;;;;;;;;;5012380;28;20405;-60
2023/08/25 02:23:11;;;;;;;11.20;9.97;;;;;;;;;;5011145;28;20483;-60
2023/08/25 02:25:36;;;;;;;11.33;9.93;;;;;;;;;;5012489;28;20937;-60
2023/08/25 02:28:01;;;;;;;12.37;9.73;;;;;;;;;;5012306;28;20483;-61
2023/08/25 02:30:27;;;;;;;12.38;11.10;;;;;;;;;;5023955;28;20419;-60
2023/08/25 02:32:54;;;;;;;12.00;10.35;;;;;;;;;;5027685;28;20413;-60
2023/08/25 02:35:20;;;;;;;10.13;9.02;;;;;;;;;;5034354;28;20833;-60
2023/08/25 02:37:58;;;;;;;11.70;10.13;;;;;;;;;;5032776;28;20766;-60
2023/08/25 02:40:23;;;;;;;12.60;11.18;;;;;;;;;;5033352;28;20390;-60
2023/08/25 02:42:48;;;;;;;13.88;11.52;;;;;;;;;;5034200;28;20452;-60
2023/08/25 02:45:14;;;;;;;11.90;10.73;;;;;;;;;;5032082;28;20405;-60
2023/08/25 02:47:39;;;;;;;12.97;11.60;;;;;;;;;;5032293;28;20458;-60
2023/08/25 02:50:05;;;;;;;15.07;12.13;;;;;;;;;;5028731;28;20755;-61
2023/08/25 02:52:30;;;;;;;11.40;10.17;;;;;;;;;;5024282;28;21595;-60
2023/08/25 02:54:55;;;;;;;14.63;11.00;;;;;;;;;;5025191;28;20457;-60
2023/08/25 02:57:20;;;;;;;13.03;10.17;;;;;;;;;;5019261;28;20421;-60
2023/08/25 02:59:46;;;;;;;12.90;11.43;;;;;;;;;;5030512;28;20417;-60
2023/08/25 03:02:11;;;;;;;14.47;12.50;;;;;;;;;;5028344;28;20787;-60
2023/08/25 03:04:36;;;;;;;13.23;11.33;;;;;;;;;;5007991;28;21047;-60
2023/08/25 03:07:02;;;;;;;13.87;12.47;;;;;;;;;;4993172;28;20422;-60
2023/08/25 03:09:27;;;;;;;13.93;11.70;;;;;;;;;;4989130;28;20408;-60
2023/08/25 03:11:52;;;;;;;15.80;14.10;;;;;;;;;;4990070;28;20498;-59
2023/08/25 03:14:18;;;;;;;14.23;12.73;;;;;;;;;;4987088;28;20449;-60
2023/08/25 03:16:43;;;;;;;17.10;13.20;;;;;;;;;;4994822;28;20427;-60
2023/08/25 03:19:09;;;;;;;13.90;12.47;;;;;;;;;;4984936;28;20417;-60
2023/08/25 03:21:34;;;;;;;13.90;12.00;;;;;;;;;;4992728;28;20423;-60
2023/08/25 03:23:59;;;;;;;13.37;11.97;;;;;;;;;;4988935;28;20406;-60
2023/08/25 03:26:25;;;;;;;16.27;12.80;;;;;;;;;;4987760;28;20944;-60
2023/08/25 03:28:50;;;;;;;15.03;12.23;;;;;;;;;;4991311;28;20410;-60
2023/08/25 03:31:15;;;;;;;14.10;12.00;;;;;;;;;;4992359;28;20426;-59
2023/08/25 03:33:41;;;;;;;14.20;12.70;;;;;;;;;;4989198;28;20494;-60
2023/08/25 03:36:06;;;;;;;15.60;13.15;;;;;;;;;;4984934;28;20418;-60
2023/08/25 03:38:31;;;;;;;14.80;13.07;;;;;;;;;;4985939;28;20400;-60
2023/08/25 03:40:57;;;;;;;14.82;12.27;;;;;;;;;;4980389;28;20490;-60
2023/08/25 03:43:23;;;;;;;15.30;13.70;;;;;;;;;;4987283;28;20401;-60
2023/08/25 03:45:48;;;;;;;15.23;13.43;;;;;;;;;;4992260;28;20876;-60
2023/08/25 03:48:13;;;;;;;16.20;14.43;;;;;;;;;;4988176;28;20402;-60
2023/08/25 03:50:38;;;;;;;17.13;15.33;;;;;;;;;;4989565;28;20410;-60
2023/08/25 03:53:04;;;;;;;15.47;13.80;;;;;;;;;;4986814;28;21053;-60
2023/08/25 03:55:29;;;;;;;14.60;13.10;;;;;;;;;;4981407;28;20398;-60
2023/08/25 03:57:54;;;;;;;15.63;13.77;;;;;;;;;;4991663;28;20411;-60
2023/08/25 04:00:20;;;;;;;15.03;13.27;;;;;;;;;;4980511;28;20426;-60
2023/08/25 04:02:45;;;;;;;17.80;15.63;;;;;;;;;;4980935;28;20497;-60
2023/08/25 04:05:10;;;;;;;14.93;12.10;;;;;;;;;;4989518;28;20914;-60
2023/08/25 04:07:35;;;;;;;15.53;13.93;;;;;;;;;;4987493;28;20894;-60
2023/08/25 04:10:01;;;;;;;15.10;13.57;;;;;;;;;;4988446;28;20424;-60
2023/08/25 04:12:26;;;;;;;15.87;13.70;;;;;;;;;;5003483;28;20404;-59
2023/08/25 04:14:51;;;;;;;19.37;15.30;;;;;;;;;;5000841;28;20961;-60
2023/08/25 04:17:16;;;;;;;15.27;13.67;;;;;;;;;;5006138;28;20924;-60
2023/08/25 04:19:42;;;;;;;14.47;12.37;;;;;;;;;;5014220;28;20407;-59
2023/08/25 04:22:07;;;;;;;13.43;12.03;;;;;;;;;;5013831;28;20762;-60
2023/08/25 04:24:32;;;;;;;14.23;12.03;;;;;;;;;;5023303;28;20486;-60
2023/08/25 04:26:58;;;;;;;14.87;12.90;;;;;;;;;;5023593;28;20411;-60
2023/08/25 04:29:23;;;;;;;15.27;13.07;;;;;;;;;;5025810;28;21021;-60
2023/08/25 04:31:48;;;;;;;13.73;12.33;;;;;;;;;;5031328;28;20465;-60
2023/08/25 04:34:14;;;;;;;15.27;13.43;;;;;;;;;;5031979;28;20411;-60
2023/08/25 04:36:39;;;;;;;15.17;13.07;;;;;;;;;;5027744;28;20484;-60
2023/08/25 04:39:05;;;;;;;14.37;12.87;;;;;;;;;;5013295;28;20399;-61
2023/08/25 04:41:30;;;;;;;14.73;13.07;;;;;;;;;;5010709;28;20857;-60
2023/08/25 04:43:55;;;;;;;15.93;13.87;;;;;;;;;;5018340;28;20407;-60
2023/08/25 04:46:21;;;;;;;14.97;13.10;;;;;;;;;;5025572;28;20547;-60
2023/08/25 04:48:47;;;;;;;14.95;13.43;;;;;;;;;;5024968;28;21080;-60
2023/08/25 04:51:12;;;;;;;16.23;14.57;;;;;;;;;;5019395;28;20444;-60
2023/08/25 04:53:37;;;;;;;16.93;14.90;;;;;;;;;;5027209;28;20409;-60
2023/08/25 04:56:03;;;;;;;15.73;14.13;;;;;;;;;;5020899;28;20463;-60
2023/08/25 04:58:28;;;;;;;16.30;14.40;;;;;;;;;;5030449;28;20457;-60
2023/08/25 05:00:53;;;;;;;16.87;13.23;;;;;;;;;;5022438;28;20409;-60
2023/08/25 05:03:18;;;;;;;15.05;12.98;;;;;;;;;;5021703;28;20427;-60
2023/08/25 05:05:44;;;;;;;15.50;12.57;;;;;;;;;;5025517;28;20404;-60
2023/08/25 05:08:09;;;;;;;16.35;14.10;;;;;;;;;;5021896;28;20479;-60
2023/08/25 05:10:34;;;;;;;15.60;12.82;;;;;;;;;;5025874;28;20414;-60
2023/08/25 05:13:00;;;;;;;16.63;13.85;;;;;;;;;;5021096;28;20415;-60
2023/08/25 05:15:25;;;;;;;15.02;13.25;;;;;;;;;;5012862;28;20480;-60
2023/08/25 05:17:50;;;;;;;17.08;14.95;;;;;;;;;;5014091;28;20453;-60
2023/08/25 05:20:17;;;;;;;17.43;15.57;;;;;;;;;;5011355;28;20416;-60
2023/08/25 05:22:43;;;;;;;16.90;15.20;;;;;;;;;;5034768;28;21277;-60
2023/08/25 05:25:08;;;;;;;16.90;15.20;;;;;;;;;;5023237;28;20403;-60
2023/08/25 05:27:33;;;;;;;19.47;17.47;;;;;;;;;;5029076;28;20400;-60
2023/08/25 05:29:58;;;;;;;19.70;17.60;;;;;;;;;;5021577;28;20405;-60
2023/08/25 05:32:24;;;;;;;18.90;16.90;;;;;;;;;;5027861;28;20399;-60
2023/08/25 05:34:49;;;;;;;21.40;18.92;;;;;;;;;;5021513;28;20415;-60
2023/08/25 05:37:14;;;;;;;21.40;19.23;;;;;;;;;;5015347;28;20766;-61
2023/08/25 05:39:40;;;;;;;24.25;21.35;;;;;;;;;;5025528;28;20403;-60
2023/08/25 05:42:06;;;;;;;21.42;19.13;;;;;;;;;;5022490;28;20506;-61
2023/08/25 05:44:32;;;;;;;20.75;18.63;;;;;;;;;;5022765;28;20422;-60
2023/08/25 05:46:57;;;;;;;19.57;17.57;;;;;;;;;;5025455;28;20416;-60
2023/08/25 05:49:22;;;;;;;19.47;17.43;;;;;;;;;;5024645;28;20384;-60
2023/08/25 05:51:49;;;;;;;20.63;17.80;;;;;;;;;;5022719;28;20457;-60
2023/08/25 05:54:15;;;;;;;23.30;20.83;;;;;;;;;;5026398;28;20414;-60
2023/08/25 05:56:40;;;;;;;25.90;23.27;;;;;;;;;;5036552;28;20421;-60
2023/08/25 05:59:05;;;;;;;26.33;23.53;;;;;;;;;;5031723;28;20452;-61
2023/08/25 06:01:30;;;;;;;26.70;23.43;;;;;;;;;;5032966;28;20972;-60
2023/08/25 06:03:56;;;;;;;24.23;21.73;;;;;;;;;;5034564;28;20450;-60
2023/08/25 06:06:22;;;;;;;24.30;21.93;;;;;;;;;;5033797;28;20390;-60
2023/08/25 06:08:47;;;;;;;23.88;21.48;;;;;;;;;;5034713;28;20484;-60
2023/08/25 06:11:13;;;;;;;26.50;23.50;;;;;;;;;;5035302;28;20517;-61
2023/08/25 06:13:39;;;;;;;26.77;23.58;;;;;;;;;;5029944;28;20872;-60
2023/08/25 06:16:04;;;;;;;28.88;24.77;;;;;;;;;;5023120;28;20445;-61
2023/08/25 06:18:29;;;;;;;26.57;23.77;;;;;;;;;;5025496;28;20977;-61
2023/08/25 06:20:55;;;;;;;27.00;24.13;;;;;;;;;;5025613;28;20399;-60
2023/08/25 06:23:20;;;;;;;25.63;22.80;;;;;;;;;;5023121;28;20424;-60
2023/08/25 06:25:45;;;;;;;29.37;26.03;;;;;;;;;;5036038;28;20477;-61
2023/08/25 06:28:11;;;;;;;29.37;26.27;;;;;;;;;;5034835;28;20389;-60
2023/08/25 06:30:36;;;;;;;25.60;22.87;;;;;;;;;;5030183;28;20843;-61
2023/08/25 06:33:01;;;;;;;27.00;24.10;;;;;;;;;;5028822;28;20474;-61
2023/08/25 06:35:27;;;;;;;25.80;23.20;;;;;;;;;;5036298;28;20411;-61
2023/08/25 06:37:52;;;;;;;27.73;24.63;;;;;;;;;;5036293;28;20409;-61
2023/08/25 06:40:17;;;;;;;28.47;25.40;;;;;;;;;;5029037;28;20414;-60
2023/08/25 06:42:43;;;;;;;26.40;23.73;;;;;;;;;;5024123;28;20890;-60
2023/08/25 06:45:08;;;;;;;27.40;24.10;;;;;;;;;;5019559;28;20413;-61
2023/08/25 06:47:34;;;;;;;25.90;23.17;;;;;;;;;;5021799;28;20846;-60
2023/08/25 06:49:59;;;;;;;25.67;22.90;;;;;;;;;;5021935;28;20412;-60
2023/08/25 06:52:25;;;;;;;24.97;22.33;;;;;;;;;;5024013;28;21336;-61
2023/08/25 06:54:50;;;;;;;25.83;23.13;;;;;;;;;;5023566;28;20457;-60
2023/08/25 06:57:15;;;;;;;25.13;22.47;;;;;;;;;;5020372;28;20406;-60
2023/08/25 06:59:40;;;;;;;25.60;22.93;;;;;;;;;;5033121;28;20752;-60
2023/08/25 07:02:07;;;;;;;24.63;22.13;;;;;;;;;;5033636;28;20462;-61
2023/08/25 07:04:32;;;;;;;25.85;23.13;;;;;;;;;;5030641;28;20476;-60
2023/08/25 07:06:58;;;;;;;21.97;19.67;;;;;;;;;;5036729;28;21492;-60
2023/08/25 07:09:24;;;;;;;24.25;21.75;;;;;;;;;;5032836;28;20423;-60
2023/08/25 07:11:49;;;;;;;28.43;24.17;;;;;;;;;;5029308;28;20406;-60
2023/08/25 07:14:15;;;;;;;29.30;24.87;;;;;;;;;;5030390;28;20414;-60
2023/08/25 07:16:41;;;;;;;26.85;22.95;;;;;;;;;;5022888;28;20403;-60
2023/08/25 07:19:06;;;;;;;31.73;27.93;;;;;;;;;;5022313;28;20412;-60
2023/08/25 07:21:32;;;;;;;30.33;25.57;;;;;;;;;;5020622;28;20455;-60
2023/08/25 07:23:57;;;;;;;29.27;24.30;;;;;;;;;;5024420;28;20411;-61
2023/08/25 07:26:22;;;;;;;28.50;25.40;;;;;;;;;;5023375;28;20406;-60
2023/08/25 07:28:47;;;;;;;28.40;25.00;;;;;;;;;;5019539;28;20922;-60
2023/08/25 07:31:13;;;;;;;28.53;25.47;;;;;;;;;;5022803;28;20922;-60
2023/08/25 07:33:38;;;;;;;28.27;24.63;;;;;;;;;;5023730;28;20443;-60
2023/08/25 07:36:04;;;;;;;29.67;25.25;;;;;;;;;;5029432;28;21006;-60
2023/08/25 07:38:29;;;;;;;26.63;23.27;;;;;;;;;;5029836;28;20411;-60
2023/08/25 07:40:55;;;;;;;26.97;24.07;;;;;;;;;;5031810;28;20741;-60
2023/08/25 07:43:20;;;;;;;23.27;20.73;;;;;;;;;;5024886;28;20389;-60
2023/08/25 07:45:46;;;;;;;25.25;22.55;;;;;;;;;;5025096;28;20582;-60
2023/08/25 07:48:11;;;;;;;28.00;23.83;;;;;;;;;;5033476;28;20395;-60
2023/08/25 07:50:36;;;;;;;25.65;22.95;;;;;;;;;;5030906;28;20399;-60
2023/08/25 07:53:02;;;;;;;25.20;22.58;;;;;;;;;;5018739;28;20407;-61
2023/08/25 07:55:28;;;;;;;26.42;23.58;;;;;;;;;;5021668;28;20407;-60
2023/08/25 07:57:53;;;;;;;25.33;22.73;;;;;;;;;;5023899;28;20406;-60
2023/08/25 08:00:19;;;;;;;26.23;23.40;;;;;;;;;;5020386;28;20418;-60
2023/08/25 08:02:44;;;;;;;25.83;22.97;;;;;;;;;;5020810;28;20418;-60
2023/08/25 08:05:10;;;;;;;26.70;23.87;;;;;;;;;;5031707;28;20797;-61
2023/08/25 08:07:35;;;;;;;23.88;21.38;;;;;;;;;;5031231;28;20963;-60
2023/08/25 08:10:01;;;;;;;25.93;23.17;;;;;;;;;;5026780;28;20762;-61
2023/08/25 08:12:26;;;;;;;30.47;26.40;;;;;;;;;;5023594;28;20395;-60
2023/08/25 08:14:51;;;;;;;26.40;23.63;;;;;;;;;;5022477;28;20407;-60
2023/08/25 08:17:17;;;;;;;25.60;23.00;;;;;;;;;;5019851;28;20405;-60
2023/08/25 08:19:42;;;;;;;25.97;23.20;;;;;;;;;;5027889;28;20776;-60
2023/08/25 08:22:07;;;;;;;23.33;21.10;;;;;;;;;;5032183;28;20790;-61
2023/08/25 08:24:33;;;;;;;26.57;23.77;;;;;;;;;;5030289;28;20395;-60
2023/08/25 08:26:59;;;;;;;26.95;23.90;;;;;;;;;;5028136;28;20406;-60
2023/08/25 08:29:25;;;;;;;27.90;24.77;;;;;;;;;;5022110;28;20465;-60
2023/08/25 08:31:50;;;;;;;25.92;23.13;;;;;;;;;;5015958;28;20400;-61
2023/08/25 08:34:16;;;;;;;25.83;23.20;;;;;;;;;;5017915;28;20975;-61
2023/08/25 08:36:41;;;;;;;22.90;20.60;;;;;;;;;;5022893;28;20412;-61
2023/08/25 08:39:07;;;;;;;24.30;21.67;;;;;;;;;;5023591;28;20407;-61
2023/08/25 08:41:33;;;;;;;24.80;22.33;;;;;;;;;;5032061;28;20394;-61
2023/08/25 08:43:59;;;;;;;26.67;23.60;;;;;;;;;;5030364;28;20424;-61
2023/08/25 08:46:24;;;;;;;25.92;23.20;;;;;;;;;;5031145;28;20438;-62
2023/08/25 08:48:49;;;;;;;27.90;23.90;;;;;;;;;;5020720;28;20438;-62
2023/08/25 08:51:15;;;;;;;25.07;22.37;;;;;;;;;;5018397;28;20453;-62
2023/08/25 08:53:41;;;;;;;24.13;21.60;;;;;;;;;;5023530;28;20414;-61
2023/08/25 08:56:07;;;;;;;29.02;24.27;;;;;;;;;;5020664;28;20906;-61
2023/08/25 08:58:33;;;;;;;23.70;20.33;;;;;;;;;;5018195;28;20453;-61
2023/08/25 09:00:58;;;;;;;20.27;18.03;;;;;;;;;;5022329;28;20420;-61
2023/08/25 09:03:24;;;;;;;20.37;18.17;;;;;;;;;;5023740;28;20399;-61
2023/08/25 09:05:49;;;;;;;18.63;16.55;;;;;;;;;;5023898;28;20399;-60
2023/08/25 09:08:15;;;;;;;20.20;17.83;;;;;;;;;;5023922;28;20906;-61
2023/08/25 09:10:40;;;;;;;17.63;15.83;;;;;;;;;;5026509;28;20952;-61
2023/08/25 09:13:06;;;;;;;19.20;16.57;;;;;;;;;;5026126;28;20453;-61
2023/08/25 09:15:32;;;;;;;20.58;16.80;;;;;;;;;;5021925;28;20478;-60
2023/08/25 09:18:04;;;;;;;19.63;17.10;;;;;;;;;;5026516;28;20510;-61
2023/08/25 09:20:30;;;;;;;17.95;15.98;;;;;;;;;;5030112;28;20405;-61
2023/08/25 09:22:55;;;;;;;19.02;15.43;;;;;;;;;;5035057;28;20418;-61
2023/08/25 09:25:21;;;;;;;17.52;14.98;;;;;;;;;;5032179;28;20535;-61
2023/08/25 09:27:46;;;;;;;15.77;12.67;;;;;;;;;;5035133;28;20395;-61
2023/08/25 09:30:11;;;;;;;15.80;12.27;;;;;;;;;;5034668;28;20411;-61
2023/08/25 09:32:37;;;;;;;13.90;11.90;;;;;;;;;;5028271;28;20505;-61
2023/08/25 09:35:10;;;;;;;17.13;12.17;;;;;;;;;;5025154;28;20402;-61
2023/08/25 09:37:41;;;;;;;16.52;11.95;;;;;;;;;;5037998;28;20896;-61
2023/08/25 09:40:12;;;;;;;15.37;12.40;;;;;;;;;;5023762;28;20410;-61
2023/08/25 09:42:37;;;;;;;13.85;10.60;;;;;;;;;;5033272;28;20430;-61
2023/08/25 09:45:03;;;;;;;13.93;11.40;;;;;;;;;;5017902;28;20391;-61
2023/08/25 09:47:28;;;;;;;12.70;10.27;;;;;;;;;;5027041;28;20390;-61
2023/08/25 09:49:53;;;;;;;13.73;11.03;;;;;;;;;;5022751;28;20462;-61
2023/08/25 09:52:19;;;;;;;11.77;9.53;;;;;;;;;;5026259;28;20904;-61
2023/08/25 09:54:44;;;;;;;13.33;10.77;;;;;;;;;;5037954;28;20401;-61
2023/08/25 09:57:09;;;;;;;11.60;9.57;;;;;;;;;;5026034;28;20410;-61
2023/08/25 09:59:35;;;;;;;10.40;8.87;;;;;;;;;;5033609;28;20420;-60
2023/08/25 10:02:00;;;;;;;9.57;8.33;;;;;;;;;;5027968;28;20423;-61
2023/08/25 10:04:25;;;;;;;10.37;8.30;;;;;;;;;;5036356;28;20429;-61
2023/08/25 10:06:51;;;;;;;9.67;8.03;;;;;;;;;;5031539;28;20408;-61
2023/08/25 10:09:17;;;;;;;10.33;8.70;;;;;;;;;;5031894;28;20405;-60
2023/08/25 10:11:44;;;;;;;9.48;7.63;;;;;;;;;;5024564;28;21005;-60
2023/08/25 10:14:10;;;;;;;8.05;6.72;;;;;;;;;;5019823;28;20455;-61
2023/08/25 10:16:38;;;;;;;8.73;7.03;;;;;;;;;;5023509;28;20407;-61
2023/08/25 10:19:04;;;;;;;10.50;7.47;;;;;;;;;;5025184;28;20414;-60
2023/08/25 10:21:29;;;;;;;9.57;7.63;;;;;;;;;;5035548;28;20398;-61
2023/08/25 10:23:55;;;;;;;8.47;6.43;;;;;;;;;;5033175;28;20418;-61
2023/08/25 10:26:21;;;;;;;8.97;7.00;;;;;;;;;;5033818;28;20401;-61
2023/08/25 10:28:46;;;;;;;8.70;7.18;;;;;;;;;;5023169;28;20403;-61
2023/08/25 10:31:12;;;;;;;8.40;6.20;;;;;;;;;;5019393;28;20424;-61
2023/08/25 10:33:45;;;;;;;11.73;7.18;;;;;;;;;;5022973;28;20902;-61
2023/08/25 10:36:14;;;;;;;14.68;7.10;;;;;;;;;;5023501;28;20959;-63
2023/08/25 10:38:39;;;;;;;15.70;8.70;;;;;;;;;;5023859;28;20496;-62
2023/08/25 10:41:11;;;;;;;11.67;6.80;;;;;;;;;;5021212;28;20931;-62
2023/08/25 10:43:37;;;;;;;11.03;7.07;;;;;;;;;;5024153;28;20432;-61
2023/08/25 10:46:08;;;;;;;8.93;7.27;;;;;;;;;;5023359;28;20631;-61
2023/08/25 10:48:34;;;;;;;7.00;5.68;;;;;;;;;;5019879;28;20492;-61
2023/08/25 10:51:07;;;;;;;8.13;5.70;;;;;;;;;;5023678;28;20403;-61
2023/08/25 10:53:34;;;;;;;8.18;6.28;;;;;;;;;;5024067;28;20425;-61
2023/08/25 10:56:11;;;;;;;6.75;6.05;;;;;;;;;;5031779;28;20407;-61
2023/08/25 10:58:37;;;;;;;7.85;6.40;;;;;;;;;;5027287;28;20411;-61
2023/08/25 11:01:02;;;;;;;6.97;5.80;;;;;;;;;;5023496;28;20399;-62
2023/08/25 11:03:48;;;;;;;6.67;5.63;;;;;;;;;;5023879;28;20468;-61
2023/08/25 11:06:32;;;;;;;8.68;5.63;;;;;;;;;;5022904;28;20770;-61
2023/08/25 11:08:57;;;;;;;6.60;5.40;;;;;;;;;;5027266;28;20412;-61
2023/08/25 11:11:23;;;;;;;7.15;5.90;;;;;;;;;;5023567;28;20407;-61
2023/08/25 11:13:48;;;;;;;7.23;5.50;;;;;;;;;;5033195;28;20483;-61
2023/08/25 11:16:13;;;;;;;6.87;5.93;;;;;;;;;;5021160;28;20446;-60
2023/08/25 11:18:40;;;;;;;8.30;5.87;;;;;;;;;;5033798;28;20409;-61
2023/08/25 11:21:05;;;;;;;7.68;6.65;;;;;;;;;;5035085;28;20419;-61
2023/08/25 11:23:38;;;;;;;8.00;5.97;;;;;;;;;;5031567;28;20399;-61
2023/08/25 11:26:03;;;;;;;7.80;6.05;;;;;;;;;;5027828;28;20927;-61
2023/08/25 11:28:29;;;;;;;12.23;6.93;;;;;;;;;;5035347;28;20467;-61
2023/08/25 11:30:54;;;;;;;7.70;6.75;;;;;;;;;;5035129;28;21033;-61
2023/08/25 11:33:20;;;;;;;8.90;7.60;;;;;;;;;;5018969;28;20510;-61
2023/08/25 11:35:45;;;;;;;8.07;7.22;;;;;;;;;;5023322;28;20482;-60
2023/08/25 11:38:12;;;;;;;9.05;7.93;;;;;;;;;;5023090;28;21825;-61
2023/08/25 11:40:38;;;;;;;8.57;7.68;;;;;;;;;;5022112;28;20403;-61
2023/08/25 11:43:04;;;;;;;10.38;8.32;;;;;;;;;;5019796;28;20498;-61
2023/08/25 11:45:29;;;;;;;10.23;7.47;;;;;;;;;;5021719;28;20487;-61
2023/08/25 11:47:54;;;;;;;11.03;8.37;;;;;;;;;;5023868;28;20761;-60
2023/08/25 11:50:20;;;;;;;8.30;7.07;;;;;;;;;;5029132;28;20429;-61
2023/08/25 11:52:45;;;;;;;11.27;10.00;;;;;;;;;;5035006;28;20408;-61
2023/08/25 11:55:13;;;;;;;12.13;10.10;;;;;;;;;;5024806;28;20403;-61
2023/08/25 11:57:38;;;;;;;11.57;9.95;;;;;;;;;;5032198;28;20409;-60
2023/08/25 12:00:05;;;;;;;12.53;11.23;;;;;;;;;;5032182;28;20420;-61
2023/08/25 12:02:30;;;;;;;12.63;10.90;;;;;;;;;;5024016;28;20411;-60
2023/08/25 12:05:00;;;;;;;11.70;10.50;;;;;;;;;;5021303;28;21390;-60
2023/08/25 12:07:26;;;;;;;14.20;12.02;;;;;;;;;;5018750;28;21035;-61
2023/08/25 12:09:53;;;;;;;12.18;10.32;;;;;;;;;;5023626;28;20416;-60
2023/08/25 12:12:19;;;;;;;14.35;11.65;;;;;;;;;;5022552;28;20403;-61
2023/08/25 12:14:44;;;;;;;13.33;11.93;;;;;;;;;;5019067;28;20413;-60
2023/08/25 12:17:19;;;;;;;12.87;11.47;;;;;;;;;;5022210;28;20407;-61
2023/08/25 12:19:44;;;;;;;13.30;11.05;;;;;;;;;;5021888;28;20895;-60
2023/08/25 12:22:10;;;;;;;12.57;10.60;;;;;;;;;;5020788;28;20434;-61
2023/08/25 12:24:35;;;;;;;13.77;12.32;;;;;;;;;;5018343;28;20407;-60
2023/08/25 12:27:01;;;;;;;13.80;11.57;;;;;;;;;;5022178;28;20411;-61
2023/08/25 12:29:26;;;;;;;12.93;11.27;;;;;;;;;;5023597;28;20449;-61
2023/08/25 12:31:53;;;;;;;12.53;11.03;;;;;;;;;;5017052;28;20416;-60
2023/08/25 12:34:18;;;;;;;14.00;12.02;;;;;;;;;;5021425;28;20403;-61
2023/08/25 12:36:43;;;;;;;15.23;12.87;;;;;;;;;;5021543;28;20414;-60
2023/08/25 12:39:08;;;;;;;16.27;13.47;;;;;;;;;;5020257;28;20469;-61
2023/08/25 12:41:34;;;;;;;13.90;12.40;;;;;;;;;;5024763;28;20981;-60
2023/08/25 12:43:59;;;;;;;15.00;12.90;;;;;;;;;;5022466;28;20421;-60
2023/08/25 12:46:24;;;;;;;15.77;14.07;;;;;;;;;;5021690;28;20785;-60
2023/08/25 12:48:50;;;;;;;15.50;13.87;;;;;;;;;;5018440;28;21497;-60
2023/08/25 12:51:15;;;;;;;15.57;13.97;;;;;;;;;;5023008;28;20438;-60
2023/08/25 12:53:41;;;;;;;16.05;14.45;;;;;;;;;;5031746;28;20441;-60
2023/08/25 12:56:06;;;;;;;16.05;14.35;;;;;;;;;;5026935;28;20425;-61
2023/08/25 12:58:32;;;;;;;15.70;14.00;;;;;;;;;;5033968;28;20443;-60
2023/08/25 13:00:57;;;;;;;15.90;14.30;;;;;;;;;;5027105;28;21331;-60
2023/08/25 13:03:23;;;;;;;16.50;14.87;;;;;;;;;;5018643;28;20850;-61
2023/08/25 13:05:48;;;;;;;15.60;14.00;;;;;;;;;;5020187;28;20920;-60
2023/08/25 13:08:13;;;;;;;14.53;13.07;;;;;;;;;;5023078;28;20422;-60
2023/08/25 13:10:38;;;;;;;14.50;13.00;;;;;;;;;;5021931;28;20753;-60
2023/08/25 13:13:05;;;;;;;13.97;12.60;;;;;;;;;;5018083;28;20407;-60
2023/08/25 13:15:30;;;;;;;15.13;13.63;;;;;;;;;;5023163;28;20467;-60
2023/08/25 13:17:56;;;;;;;15.27;13.77;;;;;;;;;;5030129;28;20405;-60
2023/08/25 13:20:21;;;;;;;13.93;12.50;;;;;;;;;;5027716;28;20778;-60
2023/08/25 13:22:46;;;;;;;14.38;12.98;;;;;;;;;;5029889;28;20944;-60
2023/08/25 13:25:12;;;;;;;13.53;12.23;;;;;;;;;;5031586;28;20410;-61
2023/08/25 13:27:39;;;;;;;13.33;12.13;;;;;;;;;;5032778;28;20394;-60
2023/08/25 13:30:06;;;;;;;14.38;12.85;;;;;;;;;;5030098;28;20480;-61
2023/08/25 13:32:31;;;;;;;14.35;12.95;;;;;;;;;;5013133;28;20524;-60
2023/08/25 13:34:56;;;;;;;14.53;13.07;;;;;;;;;;5007663;28;20411;-61
2023/08/25 13:37:22;;;;;;;14.10;12.63;;;;;;;;;;5007350;28;20971;-60
2023/08/25 13:39:47;;;;;;;14.67;13.27;;;;;;;;;;5005909;28;20882;-60
2023/08/25 13:42:13;;;;;;;14.67;13.23;;;;;;;;;;5008463;28;20427;-60
2023/08/25 13:44:38;;;;;;;13.13;11.73;;;;;;;;;;5002337;28;20402;-60
2023/08/25 13:47:05;;;;;;;13.33;11.50;;;;;;;;;;4992472;28;20444;-61
2023/08/25 13:49:30;;;;;;;14.23;12.75;;;;;;;;;;4995244;28;20407;-60
2023/08/25 13:51:55;;;;;;;14.93;13.40;;;;;;;;;;4995656;28;20464;-60
2023/08/25 13:54:21;;;;;;;14.40;12.90;;;;;;;;;;4999403;28;20406;-60
2023/08/25 13:56:46;;;;;;;14.47;12.83;;;;;;;;;;4989264;28;20413;-60
2023/08/25 13:59:11;;;;;;;14.97;13.57;;;;;;;;;;4987226;28;20874;-60
2023/08/25 14:01:37;;;;;;;15.57;14.07;;;;;;;;;;4991813;28;20461;-60
2023/08/25 14:04:03;;;;;;;15.47;13.97;;;;;;;;;;4992582;28;20468;-61
2023/08/25 14:06:28;;;;;;;15.10;13.50;;;;;;;;;;4994041;28;20395;-60
2023/08/25 14:08:54;;;;;;;15.60;14.03;;;;;;;;;;4998561;28;20418;-60
2023/08/25 14:11:19;;;;;;;16.27;14.77;;;;;;;;;;4997389;28;20414;-60
2023/08/25 14:13:45;;;;;;;15.52;14.00;;;;;;;;;;4994211;28;20410;-60
2023/08/25 14:16:10;;;;;;;14.70;13.20;;;;;;;;;;5003945;28;20932;-60